MMNL/NLD METAR and TAF weather

Enter ICAO airport designator
Station Type Date Time Source
MMNL METAR 2019/02/20 17:43 UTC NOAA

MMNL 201743Z 33010KT 10SM SKC 15/00 A3007 RMK SLP176 57002 937


Station Type Date Time Source
MMNL Decoded METAR 2019/02/20 17:43 UTC NOAA

Nuevo Laredo International , Mexico (MMNL) 27-26N 099-34W
Feb 20, 2019 - 12:43 PM EST / 2019.02.20 1743 UTC
Wind: from the NNW (330 degrees) at 12 MPH (10 KT):0
Visibility: 10 mile(s):0
Sky conditions: clear
Temperature: 59 F (15 C)
Dew Point: 32 F (0 C)
Relative Humidity: 35%
Pressure (altimeter): 30.07 in. Hg (1018 hPa)
Pressure tendency: 0.01 inches (0.2 hPa) lower than three hours ago
ob: MMNL 201743Z 33010KT 10SM SKC 15/00 A3007 RMK SLP176 57002 937
cycle: 17

Station Type Date Time Source
MMNL TAF 2019/02/20 18:57 UTC NOAA

TAF MMNL 201655Z 2018/2118 35010KT P6SM SKC
BECMG 2020/2021 05010KT
FM210400 12010KT P6SM SCT220
BECMG 2108/2109 BKN200
TEMPO 2111/2115 4SM HZ BKN010 BKN200
FM211600 13010KT P6SM SCT020 BKN200


Example: see airport list